sensor_id;sensor_type;location;lat;lon;timestamp;P1;durP1;ratioP1;P2;durP2;ratioP2
36391;SDS011;22639;42.690;23.356;2022-07-29T00:02:01;11.63;;;9.27;;
36391;SDS011;22639;42.690;23.356;2022-07-29T00:04:26;9.90;;;8.90;;
36391;SDS011;22639;42.690;23.356;2022-07-29T00:06:52;13.82;;;8.82;;
36391;SDS011;22639;42.690;23.356;2022-07-29T00:09:17;10.52;;;8.75;;
36391;SDS011;22639;42.690;23.356;2022-07-29T00:11:43;9.50;;;8.50;;
36391;SDS011;22639;42.690;23.356;2022-07-29T00:14:08;9.80;;;8.48;;
36391;SDS011;22639;42.690;23.356;2022-07-29T00:16:34;10.73;;;8.57;;
36391;SDS011;22639;42.690;23.356;2022-07-29T00:18:59;10.13;;;8.98;;
36391;SDS011;22639;42.690;23.356;2022-07-29T00:21:25;10.20;;;8.75;;
36391;SDS011;22639;42.690;23.356;2022-07-29T00:23:50;11.15;;;8.98;;
36391;SDS011;22639;42.690;23.356;2022-07-29T00:26:16;9.98;;;8.38;;
36391;SDS011;22639;42.690;23.356;2022-07-29T00:28:41;10.40;;;8.93;;
36391;SDS011;22639;42.690;23.356;2022-07-29T00:31:07;11.18;;;9.90;;
36391;SDS011;22639;42.690;23.356;2022-07-29T00:33:33;11.35;;;9.77;;
36391;SDS011;22639;42.690;23.356;2022-07-29T00:35:58;9.98;;;8.98;;
36391;SDS011;22639;42.690;23.356;2022-07-29T00:38:24;11.15;;;10.05;;
36391;SDS011;22639;42.690;23.356;2022-07-29T00:40:49;10.45;;;9.35;;
36391;SDS011;22639;42.690;23.356;2022-07-29T00:43:16;12.50;;;9.25;;
36391;SDS011;22639;42.690;23.356;2022-07-29T00:45:42;10.63;;;8.95;;
36391;SDS011;22639;42.690;23.356;2022-07-29T00:48:07;10.43;;;9.32;;
36391;SDS011;22639;42.690;23.356;2022-07-29T00:50:34;12.30;;;9.48;;
36391;SDS011;22639;42.690;23.356;2022-07-29T00:53:00;9.60;;;8.65;;
36391;SDS011;22639;42.690;23.356;2022-07-29T00:55:26;11.23;;;10.02;;
36391;SDS011;22639;42.690;23.356;2022-07-29T00:57:51;10.90;;;8.88;;
36391;SDS011;22639;42.690;23.356;2022-07-29T01:00:19;10.20;;;9.20;;
36391;SDS011;22639;42.690;23.356;2022-07-29T01:02:46;10.88;;;9.85;;
36391;SDS011;22639;42.690;23.356;2022-07-29T01:05:13;13.38;;;11.95;;
36391;SDS011;22639;42.690;23.356;2022-07-29T01:07:41;14.48;;;11.35;;
36391;SDS011;22639;42.690;23.356;2022-07-29T01:10:07;12.95;;;11.52;;
36391;SDS011;22639;42.690;23.356;2022-07-29T01:12:35;13.85;;;12.45;;
36391;SDS011;22639;42.690;23.356;2022-07-29T01:15:03;14.23;;;11.93;;
36391;SDS011;22639;42.690;23.356;2022-07-29T01:31:01;17.45;;;13.95;;
36391;SDS011;22639;42.690;23.356;2022-07-29T01:33:28;16.08;;;13.75;;
36391;SDS011;22639;42.690;23.356;2022-07-29T01:36:17;15.18;;;13.52;;
36391;SDS011;22639;42.690;23.356;2022-07-29T01:39:02;15.40;;;13.18;;
36391;SDS011;22639;42.690;23.356;2022-07-29T01:41:52;16.35;;;14.63;;
36391;SDS011;22639;42.690;23.356;2022-07-29T01:44:31;16.55;;;13.45;;
36391;SDS011;22639;42.690;23.356;2022-07-29T01:47:01;18.10;;;14.38;;
36391;SDS011;22639;42.690;23.356;2022-07-29T01:49:35;16.60;;;14.80;;
36391;SDS011;22639;42.690;23.356;2022-07-29T01:52:08;15.93;;;14.25;;
36391;SDS011;22639;42.690;23.356;2022-07-29T01:54:39;20.75;;;13.77;;
36391;SDS011;22639;42.690;23.356;2022-07-29T01:57:09;16.35;;;14.20;;
36391;SDS011;22639;42.690;23.356;2022-07-29T01:59:38;17.88;;;16.00;;
36391;SDS011;22639;42.690;23.356;2022-07-29T02:02:05;16.42;;;14.27;;
36391;SDS011;22639;42.690;23.356;2022-07-29T02:04:33;15.52;;;13.77;;
36391;SDS011;22639;42.690;23.356;2022-07-29T02:07:02;15.85;;;13.95;;
36391;SDS011;22639;42.690;23.356;2022-07-29T02:09:32;17.08;;;14.52;;
36391;SDS011;22639;42.690;23.356;2022-07-29T02:12:00;18.67;;;14.43;;
36391;SDS011;22639;42.690;23.356;2022-07-29T02:14:28;15.52;;;13.85;;
36391;SDS011;22639;42.690;23.356;2022-07-29T02:16:58;17.17;;;13.82;;
36391;SDS011;22639;42.690;23.356;2022-07-29T02:19:26;15.90;;;14.18;;
36391;SDS011;22639;42.690;23.356;2022-07-29T02:21:54;15.73;;;13.88;;
36391;SDS011;22639;42.690;23.356;2022-07-29T02:24:22;15.88;;;14.18;;
36391;SDS011;22639;42.690;23.356;2022-07-29T02:26:51;16.40;;;13.48;;
36391;SDS011;22639;42.690;23.356;2022-07-29T02:29:20;16.27;;;14.15;;
36391;SDS011;22639;42.690;23.356;2022-07-29T02:31:48;15.43;;;13.30;;
36391;SDS011;22639;42.690;23.356;2022-07-29T02:34:15;16.40;;;14.30;;
36391;SDS011;22639;42.690;23.356;2022-07-29T02:36:43;18.40;;;15.82;;
36391;SDS011;22639;42.690;23.356;2022-07-29T02:39:10;16.95;;;14.50;;
36391;SDS011;22639;42.690;23.356;2022-07-29T02:41:44;16.98;;;14.10;;
36391;SDS011;22639;42.690;23.356;2022-07-29T02:44:13;16.63;;;14.82;;
36391;SDS011;22639;42.690;23.356;2022-07-29T02:46:50;19.45;;;14.57;;
36391;SDS011;22639;42.690;23.356;2022-07-29T02:49:29;15.82;;;14.18;;
36391;SDS011;22639;42.690;23.356;2022-07-29T02:52:00;15.05;;;13.45;;
36391;SDS011;22639;42.690;23.356;2022-07-29T02:54:40;16.92;;;14.00;;
36391;SDS011;22639;42.690;23.356;2022-07-29T02:57:29;21.55;;;15.75;;
36391;SDS011;22639;42.690;23.356;2022-07-29T03:00:15;20.25;;;16.00;;
36391;SDS011;22639;42.690;23.356;2022-07-29T03:02:45;18.35;;;15.45;;
36391;SDS011;22639;42.690;23.356;2022-07-29T03:05:18;19.23;;;16.17;;
36391;SDS011;22639;42.690;23.356;2022-07-29T03:07:45;20.65;;;15.65;;
36391;SDS011;22639;42.690;23.356;2022-07-29T03:10:14;17.38;;;14.27;;
36391;SDS011;22639;42.690;23.356;2022-07-29T03:12:40;19.00;;;14.38;;
36391;SDS011;22639;42.690;23.356;2022-07-29T03:15:07;15.98;;;14.35;;
36391;SDS011;22639;42.690;23.356;2022-07-29T03:17:33;15.30;;;13.73;;
36391;SDS011;22639;42.690;23.356;2022-07-29T03:19:59;15.20;;;12.45;;
36391;SDS011;22639;42.690;23.356;2022-07-29T03:22:25;15.77;;;13.80;;
36391;SDS011;22639;42.690;23.356;2022-07-29T03:24:51;18.05;;;16.17;;
36391;SDS011;22639;42.690;23.356;2022-07-29T03:27:16;23.42;;;20.55;;
36391;SDS011;22639;42.690;23.356;2022-07-29T03:29:42;22.42;;;20.05;;
36391;SDS011;22639;42.690;23.356;2022-07-29T03:32:07;23.20;;;19.38;;
36391;SDS011;22639;42.690;23.356;2022-07-29T03:34:33;27.63;;;24.70;;
36391;SDS011;22639;42.690;23.356;2022-07-29T03:36:59;22.00;;;19.75;;
36391;SDS011;22639;42.690;23.356;2022-07-29T03:39:25;25.77;;;23.08;;
36391;SDS011;22639;42.690;23.356;2022-07-29T03:41:55;17.98;;;16.05;;
36391;SDS011;22639;42.690;23.356;2022-07-29T03:44:24;15.70;;;13.32;;
36391;SDS011;22639;42.690;23.356;2022-07-29T03:46:52;16.83;;;14.10;;
36391;SDS011;22639;42.690;23.356;2022-07-29T03:49:20;17.33;;;13.68;;
36391;SDS011;22639;42.690;23.356;2022-07-29T03:51:48;15.77;;;12.52;;
36391;SDS011;22639;42.690;23.356;2022-07-29T03:54:15;13.82;;;12.35;;
36391;SDS011;22639;42.690;23.356;2022-07-29T03:56:42;14.15;;;12.50;;
36391;SDS011;22639;42.690;23.356;2022-07-29T03:59:11;15.63;;;12.57;;
36391;SDS011;22639;42.690;23.356;2022-07-29T04:01:38;12.35;;;11.02;;
36391;SDS011;22639;42.690;23.356;2022-07-29T04:04:05;12.80;;;11.60;;
36391;SDS011;22639;42.690;23.356;2022-07-29T04:06:40;12.77;;;10.80;;
36391;SDS011;22639;42.690;23.356;2022-07-29T04:09:07;12.10;;;10.90;;
36391;SDS011;22639;42.690;23.356;2022-07-29T04:11:33;11.98;;;9.90;;
36391;SDS011;22639;42.690;23.356;2022-07-29T04:14:00;10.75;;;9.73;;
36391;SDS011;22639;42.690;23.356;2022-07-29T04:16:26;9.75;;;8.80;;
36391;SDS011;22639;42.690;23.356;2022-07-29T04:18:52;12.45;;;9.68;;
36391;SDS011;22639;42.690;23.356;2022-07-29T04:21:17;11.27;;;9.02;;
36391;SDS011;22639;42.690;23.356;2022-07-29T04:23:43;10.40;;;9.40;;
36391;SDS011;22639;42.690;23.356;2022-07-29T04:26:10;10.02;;;9.00;;
36391;SDS011;22639;42.690;23.356;2022-07-29T04:28:36;11.70;;;8.82;;
36391;SDS011;22639;42.690;23.356;2022-07-29T04:31:03;11.55;;;9.25;;
36391;SDS011;22639;42.690;23.356;2022-07-29T04:33:28;10.50;;;9.02;;
36391;SDS011;22639;42.690;23.356;2022-07-29T04:35:54;8.85;;;7.95;;
36391;SDS011;22639;42.690;23.356;2022-07-29T04:38:19;9.85;;;9.05;;
36391;SDS011;22639;42.690;23.356;2022-07-29T04:40:45;7.85;;;6.90;;
36391;SDS011;22639;42.690;23.356;2022-07-29T04:43:10;10.05;;;8.80;;
36391;SDS011;22639;42.690;23.356;2022-07-29T04:45:36;7.78;;;6.95;;
36391;SDS011;22639;42.690;23.356;2022-07-29T04:48:01;8.20;;;7.43;;
36391;SDS011;22639;42.690;23.356;2022-07-29T04:50:27;7.93;;;7.13;;
36391;SDS011;22639;42.690;23.356;2022-07-29T04:52:52;8.70;;;7.90;;
36391;SDS011;22639;42.690;23.356;2022-07-29T04:55:18;7.88;;;7.18;;
36391;SDS011;22639;42.690;23.356;2022-07-29T04:57:43;7.80;;;7.05;;
36391;SDS011;22639;42.690;23.356;2022-07-29T05:00:09;7.88;;;7.28;;
36391;SDS011;22639;42.690;23.356;2022-07-29T05:02:34;7.43;;;6.72;;
36391;SDS011;22639;42.690;23.356;2022-07-29T05:05:00;7.40;;;6.63;;
36391;SDS011;22639;42.690;23.356;2022-07-29T05:07:25;8.23;;;7.25;;
36391;SDS011;22639;42.690;23.356;2022-07-29T05:09:51;7.68;;;5.95;;
36391;SDS011;22639;42.690;23.356;2022-07-29T05:12:18;7.55;;;6.82;;
36391;SDS011;22639;42.690;23.356;2022-07-29T05:14:43;7.25;;;6.63;;
36391;SDS011;22639;42.690;23.356;2022-07-29T05:17:09;7.22;;;6.63;;
36391;SDS011;22639;42.690;23.356;2022-07-29T05:19:34;7.47;;;6.53;;
36391;SDS011;22639;42.690;23.356;2022-07-29T05:22:00;6.60;;;6.00;;
36391;SDS011;22639;42.690;23.356;2022-07-29T05:24:25;6.43;;;5.82;;
36391;SDS011;22639;42.690;23.356;2022-07-29T05:26:51;7.53;;;6.85;;
36391;SDS011;22639;42.690;23.356;2022-07-29T05:29:16;6.97;;;6.38;;
36391;SDS011;22639;42.690;23.356;2022-07-29T05:31:41;6.43;;;5.93;;
36391;SDS011;22639;42.690;23.356;2022-07-29T05:34:07;6.68;;;5.15;;
36391;SDS011;22639;42.690;23.356;2022-07-29T05:36:32;5.50;;;5.10;;
36391;SDS011;22639;42.690;23.356;2022-07-29T05:38:58;7.00;;;5.50;;
36391;SDS011;22639;42.690;23.356;2022-07-29T05:41:23;6.03;;;5.53;;
36391;SDS011;22639;42.690;23.356;2022-07-29T05:43:49;6.47;;;5.97;;
36391;SDS011;22639;42.690;23.356;2022-07-29T05:46:14;5.40;;;4.90;;
36391;SDS011;22639;42.690;23.356;2022-07-29T05:48:40;5.45;;;4.93;;
36391;SDS011;22639;42.690;23.356;2022-07-29T05:51:07;5.20;;;4.70;;
36391;SDS011;22639;42.690;23.356;2022-07-29T05:53:33;5.45;;;4.95;;
36391;SDS011;22639;42.690;23.356;2022-07-29T05:56:02;7.15;;;5.78;;
36391;SDS011;22639;42.690;23.356;2022-07-29T05:58:29;6.75;;;6.15;;
36391;SDS011;22639;42.690;23.356;2022-07-29T06:00:55;6.43;;;5.82;;
36391;SDS011;22639;42.690;23.356;2022-07-29T06:03:24;5.78;;;5.28;;
36391;SDS011;22639;42.690;23.356;2022-07-29T06:05:52;6.28;;;5.68;;
36391;SDS011;22639;42.690;23.356;2022-07-29T06:08:18;6.07;;;5.57;;
36391;SDS011;22639;42.690;23.356;2022-07-29T06:10:44;6.15;;;5.55;;
36391;SDS011;22639;42.690;23.356;2022-07-29T06:13:10;5.60;;;5.10;;
36391;SDS011;22639;42.690;23.356;2022-07-29T06:15:36;5.63;;;5.13;;
36391;SDS011;22639;42.690;23.356;2022-07-29T06:18:02;5.32;;;4.82;;
36391;SDS011;22639;42.690;23.356;2022-07-29T06:20:28;5.28;;;4.80;;
36391;SDS011;22639;42.690;23.356;2022-07-29T06:22:55;5.60;;;5.13;;
36391;SDS011;22639;42.690;23.356;2022-07-29T06:25:21;5.63;;;5.13;;
36391;SDS011;22639;42.690;23.356;2022-07-29T06:27:48;5.68;;;5.18;;
36391;SDS011;22639;42.690;23.356;2022-07-29T06:30:14;4.85;;;4.45;;
36391;SDS011;22639;42.690;23.356;2022-07-29T06:32:39;5.80;;;5.32;;
36391;SDS011;22639;42.690;23.356;2022-07-29T06:35:05;6.10;;;5.55;;
36391;SDS011;22639;42.690;23.356;2022-07-29T06:37:31;5.70;;;5.25;;
36391;SDS011;22639;42.690;23.356;2022-07-29T06:39:57;5.63;;;5.13;;
36391;SDS011;22639;42.690;23.356;2022-07-29T06:42:42;4.90;;;4.50;;
36391;SDS011;22639;42.690;23.356;2022-07-29T06:45:08;7.18;;;6.60;;
36391;SDS011;22639;42.690;23.356;2022-07-29T06:47:34;6.35;;;5.88;;
36391;SDS011;22639;42.690;23.356;2022-07-29T06:50:00;5.03;;;4.63;;
36391;SDS011;22639;42.690;23.356;2022-07-29T06:52:25;5.25;;;4.85;;
36391;SDS011;22639;42.690;23.356;2022-07-29T06:54:50;6.15;;;5.65;;
36391;SDS011;22639;42.690;23.356;2022-07-29T06:57:16;5.80;;;5.30;;
36391;SDS011;22639;42.690;23.356;2022-07-29T06:59:41;5.10;;;4.78;;
36391;SDS011;22639;42.690;23.356;2022-07-29T07:02:07;4.97;;;4.57;;
36391;SDS011;22639;42.690;23.356;2022-07-29T07:04:32;5.80;;;5.30;;
36391;SDS011;22639;42.690;23.356;2022-07-29T07:06:58;4.70;;;4.30;;
36391;SDS011;22639;42.690;23.356;2022-07-29T07:09:24;4.35;;;4.05;;
36391;SDS011;22639;42.690;23.356;2022-07-29T07:11:50;4.63;;;4.03;;
36391;SDS011;22639;42.690;23.356;2022-07-29T07:14:15;5.80;;;5.40;;
36391;SDS011;22639;42.690;23.356;2022-07-29T07:16:41;4.82;;;4.43;;
36391;SDS011;22639;42.690;23.356;2022-07-29T07:19:06;4.70;;;4.40;;
36391;SDS011;22639;42.690;23.356;2022-07-29T07:21:32;4.32;;;3.92;;
36391;SDS011;22639;42.690;23.356;2022-07-29T07:23:58;4.60;;;4.20;;
36391;SDS011;22639;42.690;23.356;2022-07-29T07:26:24;4.32;;;4.03;;
36391;SDS011;22639;42.690;23.356;2022-07-29T07:28:50;3.80;;;3.50;;
36391;SDS011;22639;42.690;23.356;2022-07-29T07:31:16;4.18;;;3.78;;
36391;SDS011;22639;42.690;23.356;2022-07-29T07:33:41;4.38;;;4.00;;
36391;SDS011;22639;42.690;23.356;2022-07-29T07:36:07;4.03;;;3.72;;
36391;SDS011;22639;42.690;23.356;2022-07-29T07:38:32;4.15;;;3.83;;
36391;SDS011;22639;42.690;23.356;2022-07-29T07:40:58;4.32;;;3.92;;
36391;SDS011;22639;42.690;23.356;2022-07-29T07:43:23;3.75;;;3.53;;
36391;SDS011;22639;42.690;23.356;2022-07-29T07:45:49;5.00;;;3.97;;
36391;SDS011;22639;42.690;23.356;2022-07-29T07:48:14;4.78;;;4.25;;
36391;SDS011;22639;42.690;23.356;2022-07-29T07:50:40;4.35;;;3.95;;
36391;SDS011;22639;42.690;23.356;2022-07-29T07:53:05;4.45;;;4.15;;
36391;SDS011;22639;42.690;23.356;2022-07-29T07:55:30;3.67;;;3.47;;
36391;SDS011;22639;42.690;23.356;2022-07-29T07:57:56;4.13;;;3.83;;
36391;SDS011;22639;42.690;23.356;2022-07-29T08:00:22;4.15;;;3.75;;
36391;SDS011;22639;42.690;23.356;2022-07-29T08:02:47;4.35;;;3.95;;
36391;SDS011;22639;42.690;23.356;2022-07-29T08:05:13;3.92;;;3.63;;
36391;SDS011;22639;42.690;23.356;2022-07-29T08:07:45;3.53;;;3.33;;
36391;SDS011;22639;42.690;23.356;2022-07-29T08:10:12;3.80;;;3.50;;
36391;SDS011;22639;42.690;23.356;2022-07-29T08:12:40;3.35;;;3.05;;
36391;SDS011;22639;42.690;23.356;2022-07-29T08:15:05;3.95;;;3.65;;
36391;SDS011;22639;42.690;23.356;2022-07-29T08:17:33;3.83;;;3.53;;
36391;SDS011;22639;42.690;23.356;2022-07-29T08:19:59;3.35;;;3.15;;
36391;SDS011;22639;42.690;23.356;2022-07-29T08:22:24;4.32;;;4.03;;
36391;SDS011;22639;42.690;23.356;2022-07-29T08:24:50;3.60;;;3.35;;
36391;SDS011;22639;42.690;23.356;2022-07-29T08:27:20;3.88;;;3.58;;
36391;SDS011;22639;42.690;23.356;2022-07-29T08:29:45;3.58;;;3.28;;
36391;SDS011;22639;42.690;23.356;2022-07-29T08:32:11;3.50;;;3.20;;
36391;SDS011;22639;42.690;23.356;2022-07-29T08:34:37;3.90;;;3.38;;
36391;SDS011;22639;42.690;23.356;2022-07-29T08:37:02;3.38;;;3.17;;
36391;SDS011;22639;42.690;23.356;2022-07-29T08:39:28;3.15;;;2.95;;
36391;SDS011;22639;42.690;23.356;2022-07-29T08:41:53;3.88;;;3.58;;
36391;SDS011;22639;42.690;23.356;2022-07-29T08:44:20;3.35;;;3.05;;
36391;SDS011;22639;42.690;23.356;2022-07-29T08:46:46;4.13;;;3.65;;
36391;SDS011;22639;42.690;23.356;2022-07-29T08:49:13;3.13;;;2.90;;
36391;SDS011;22639;42.690;23.356;2022-07-29T08:51:40;3.70;;;3.47;;
36391;SDS011;22639;42.690;23.356;2022-07-29T08:54:06;3.55;;;3.30;;
36391;SDS011;22639;42.690;23.356;2022-07-29T08:56:33;3.53;;;3.28;;
36391;SDS011;22639;42.690;23.356;2022-07-29T08:58:59;3.38;;;3.08;;
36391;SDS011;22639;42.690;23.356;2022-07-29T09:01:29;3.38;;;3.08;;
36391;SDS011;22639;42.690;23.356;2022-07-29T09:03:57;3.72;;;3.20;;
36391;SDS011;22639;42.690;23.356;2022-07-29T09:06:24;3.08;;;2.85;;
36391;SDS011;22639;42.690;23.356;2022-07-29T09:08:54;3.63;;;2.97;;
36391;SDS011;22639;42.690;23.356;2022-07-29T09:11:24;3.47;;;3.17;;
36391;SDS011;22639;42.690;23.356;2022-07-29T09:13:50;3.30;;;3.10;;
36391;SDS011;22639;42.690;23.356;2022-07-29T09:16:15;3.10;;;2.90;;
36391;SDS011;22639;42.690;23.356;2022-07-29T09:18:43;3.05;;;2.85;;
36391;SDS011;22639;42.690;23.356;2022-07-29T09:21:13;3.50;;;3.20;;
36391;SDS011;22639;42.690;23.356;2022-07-29T09:26:44;3.25;;;3.00;;
36391;SDS011;22639;42.690;23.356;2022-07-29T09:29:20;3.40;;;2.85;;
36391;SDS011;22639;42.690;23.356;2022-07-29T09:31:48;4.07;;;3.70;;
36391;SDS011;22639;42.690;23.356;2022-07-29T09:34:20;4.05;;;3.75;;
36391;SDS011;22639;42.690;23.356;2022-07-29T09:36:56;2.95;;;2.75;;
36391;SDS011;22639;42.690;23.356;2022-07-29T09:39:39;2.97;;;2.78;;
36391;SDS011;22639;42.690;23.356;2022-07-29T09:42:12;3.20;;;3.00;;
36391;SDS011;22639;42.690;23.356;2022-07-29T09:44:46;3.90;;;3.50;;
36391;SDS011;22639;42.690;23.356;2022-07-29T09:47:16;3.50;;;3.28;;
36391;SDS011;22639;42.690;23.356;2022-07-29T09:49:55;3.50;;;3.20;;
36391;SDS011;22639;42.690;23.356;2022-07-29T09:52:23;3.47;;;3.22;;
36391;SDS011;22639;42.690;23.356;2022-07-29T09:54:49;3.58;;;3.33;;
36391;SDS011;22639;42.690;23.356;2022-07-29T09:57:22;3.35;;;3.05;;
36391;SDS011;22639;42.690;23.356;2022-07-29T09:59:56;3.47;;;3.03;;
36391;SDS011;22639;42.690;23.356;2022-07-29T10:02:27;3.38;;;2.97;;
36391;SDS011;22639;42.690;23.356;2022-07-29T10:04:57;3.15;;;2.95;;
36391;SDS011;22639;42.690;23.356;2022-07-29T10:07:24;3.63;;;3.40;;
36391;SDS011;22639;42.690;23.356;2022-07-29T10:09:54;3.15;;;2.95;;
36391;SDS011;22639;42.690;23.356;2022-07-29T10:12:22;3.03;;;2.80;;
36391;SDS011;22639;42.690;23.356;2022-07-29T10:14:49;2.97;;;2.78;;
36391;SDS011;22639;42.690;23.356;2022-07-29T10:17:17;2.63;;;2.42;;
36391;SDS011;22639;42.690;23.356;2022-07-29T10:19:43;3.08;;;2.75;;
36391;SDS011;22639;42.690;23.356;2022-07-29T10:22:09;3.05;;;2.85;;
36391;SDS011;22639;42.690;23.356;2022-07-29T10:24:35;3.40;;;3.15;;
36391;SDS011;22639;42.690;23.356;2022-07-29T10:27:03;3.08;;;2.88;;
36391;SDS011;22639;42.690;23.356;2022-07-29T10:29:30;3.28;;;3.08;;
36391;SDS011;22639;42.690;23.356;2022-07-29T10:35:15;3.55;;;3.25;;
36391;SDS011;22639;42.690;23.356;2022-07-29T10:43:29;3.30;;;3.00;;
36391;SDS011;22639;42.690;23.356;2022-07-29T10:46:00;3.25;;;3.05;;
36391;SDS011;22639;42.690;23.356;2022-07-29T10:48:27;3.47;;;3.10;;
36391;SDS011;22639;42.690;23.356;2022-07-29T10:53:24;3.78;;;3.30;;
36391;SDS011;22639;42.690;23.356;2022-07-29T10:56:22;3.50;;;3.20;;
36391;SDS011;22639;42.690;23.356;2022-07-29T11:01:45;3.33;;;3.00;;
36391;SDS011;22639;42.690;23.356;2022-07-29T11:04:12;3.95;;;3.65;;
36391;SDS011;22639;42.690;23.356;2022-07-29T11:09:27;3.90;;;3.50;;
36391;SDS011;22639;42.690;23.356;2022-07-29T11:11:55;4.93;;;3.47;;
36391;SDS011;22639;42.690;23.356;2022-07-29T11:17:25;3.50;;;3.20;;
36391;SDS011;22639;42.690;23.356;2022-07-29T11:19:51;3.60;;;3.40;;
36391;SDS011;22639;42.690;23.356;2022-07-29T11:22:35;4.07;;;3.78;;
36391;SDS011;22639;42.690;23.356;2022-07-29T11:27:40;3.30;;;3.10;;
36391;SDS011;22639;42.690;23.356;2022-07-29T11:30:05;4.15;;;3.85;;
36391;SDS011;22639;42.690;23.356;2022-07-29T11:32:42;6.50;;;4.22;;
36391;SDS011;22639;42.690;23.356;2022-07-29T11:43:47;4.28;;;3.88;;
36391;SDS011;22639;42.690;23.356;2022-07-29T11:49:06;4.90;;;3.90;;
36391;SDS011;22639;42.690;23.356;2022-07-29T11:51:34;4.55;;;4.25;;
36391;SDS011;22639;42.690;23.356;2022-07-29T11:54:01;3.63;;;3.33;;
36391;SDS011;22639;42.690;23.356;2022-07-29T11:56:27;4.45;;;4.15;;
36391;SDS011;22639;42.690;23.356;2022-07-29T11:59:03;5.03;;;4.55;;
36391;SDS011;22639;42.690;23.356;2022-07-29T12:01:31;4.72;;;4.18;;
36391;SDS011;22639;42.690;23.356;2022-07-29T12:04:06;4.68;;;4.28;;
36391;SDS011;22639;42.690;23.356;2022-07-29T12:06:35;5.93;;;4.13;;
36391;SDS011;22639;42.690;23.356;2022-07-29T12:09:10;4.47;;;4.05;;
36391;SDS011;22639;42.690;23.356;2022-07-29T12:11:40;4.63;;;4.22;;
36391;SDS011;22639;42.690;23.356;2022-07-29T12:16:49;4.97;;;4.57;;
36391;SDS011;22639;42.690;23.356;2022-07-29T12:19:14;4.80;;;4.40;;
36391;SDS011;22639;42.690;23.356;2022-07-29T12:21:44;5.53;;;4.50;;
36391;SDS011;22639;42.690;23.356;2022-07-29T12:24:11;4.93;;;4.53;;
36391;SDS011;22639;42.690;23.356;2022-07-29T12:26:36;4.60;;;4.25;;
36391;SDS011;22639;42.690;23.356;2022-07-29T12:29:15;4.50;;;4.10;;
36391;SDS011;22639;42.690;23.356;2022-07-29T12:31:43;6.95;;;4.25;;
36391;SDS011;22639;42.690;23.356;2022-07-29T12:34:10;4.60;;;4.20;;
36391;SDS011;22639;42.690;23.356;2022-07-29T12:36:36;4.53;;;4.18;;
36391;SDS011;22639;42.690;23.356;2022-07-29T12:39:03;5.25;;;4.75;;
36391;SDS011;22639;42.690;23.356;2022-07-29T12:41:30;5.05;;;4.65;;
36391;SDS011;22639;42.690;23.356;2022-07-29T12:43:56;5.47;;;5.00;;
36391;SDS011;22639;42.690;23.356;2022-07-29T12:46:21;9.93;;;5.10;;
36391;SDS011;22639;42.690;23.356;2022-07-29T12:48:50;5.60;;;5.10;;
36391;SDS011;22639;42.690;23.356;2022-07-29T12:51:27;5.22;;;4.53;;
36391;SDS011;22639;42.690;23.356;2022-07-29T12:54:06;4.88;;;4.53;;
36391;SDS011;22639;42.690;23.356;2022-07-29T12:56:38;5.05;;;4.55;;
36391;SDS011;22639;42.690;23.356;2022-07-29T12:59:14;5.10;;;4.70;;
36391;SDS011;22639;42.690;23.356;2022-07-29T13:01:41;5.70;;;5.13;;
36391;SDS011;22639;42.690;23.356;2022-07-29T13:04:07;5.70;;;5.30;;
36391;SDS011;22639;42.690;23.356;2022-07-29T13:06:34;4.88;;;4.47;;
36391;SDS011;22639;42.690;23.356;2022-07-29T13:09:19;5.47;;;5.00;;
36391;SDS011;22639;42.690;23.356;2022-07-29T13:11:53;5.30;;;4.82;;
36391;SDS011;22639;42.690;23.356;2022-07-29T13:14:35;5.78;;;5.25;;
36391;SDS011;22639;42.690;23.356;2022-07-29T13:17:20;4.55;;;4.25;;
36391;SDS011;22639;42.690;23.356;2022-07-29T13:20:05;5.28;;;4.88;;
36391;SDS011;22639;42.690;23.356;2022-07-29T13:22:34;5.90;;;5.35;;
36391;SDS011;22639;42.690;23.356;2022-07-29T13:25:01;5.47;;;5.03;;
36391;SDS011;22639;42.690;23.356;2022-07-29T13:27:29;4.72;;;4.32;;
36391;SDS011;22639;42.690;23.356;2022-07-29T13:29:57;5.18;;;4.75;;
36391;SDS011;22639;42.690;23.356;2022-07-29T13:32:25;5.32;;;4.93;;
36391;SDS011;22639;42.690;23.356;2022-07-29T13:34:52;4.72;;;4.40;;
36391;SDS011;22639;42.690;23.356;2022-07-29T13:37:18;5.30;;;4.78;;
36391;SDS011;22639;42.690;23.356;2022-07-29T13:39:44;5.07;;;4.68;;
36391;SDS011;22639;42.690;23.356;2022-07-29T13:42:10;5.25;;;4.75;;
36391;SDS011;22639;42.690;23.356;2022-07-29T13:44:38;4.55;;;4.18;;
36391;SDS011;22639;42.690;23.356;2022-07-29T13:47:04;5.15;;;4.70;;
36391;SDS011;22639;42.690;23.356;2022-07-29T13:49:30;5.22;;;4.82;;
36391;SDS011;22639;42.690;23.356;2022-07-29T13:51:55;5.05;;;4.50;;
36391;SDS011;22639;42.690;23.356;2022-07-29T13:54:20;4.93;;;4.50;;
36391;SDS011;22639;42.690;23.356;2022-07-29T13:56:46;4.63;;;4.10;;
36391;SDS011;22639;42.690;23.356;2022-07-29T13:59:13;4.88;;;4.47;;
36391;SDS011;22639;42.690;23.356;2022-07-29T14:01:39;5.20;;;4.78;;
36391;SDS011;22639;42.690;23.356;2022-07-29T14:04:07;5.20;;;4.80;;
36391;SDS011;22639;42.690;23.356;2022-07-29T14:06:35;5.00;;;4.60;;
36391;SDS011;22639;42.690;23.356;2022-07-29T14:09:02;4.95;;;4.55;;
36391;SDS011;22639;42.690;23.356;2022-07-29T14:11:31;4.82;;;4.43;;
36391;SDS011;22639;42.690;23.356;2022-07-29T14:13:56;5.03;;;4.57;;
36391;SDS011;22639;42.690;23.356;2022-07-29T14:16:23;5.20;;;4.80;;
36391;SDS011;22639;42.690;23.356;2022-07-29T14:18:49;5.53;;;5.00;;
36391;SDS011;22639;42.690;23.356;2022-07-29T14:21:14;6.00;;;5.20;;
36391;SDS011;22639;42.690;23.356;2022-07-29T14:23:39;5.20;;;4.80;;
36391;SDS011;22639;42.690;23.356;2022-07-29T14:26:05;5.53;;;5.03;;
36391;SDS011;22639;42.690;23.356;2022-07-29T14:28:31;4.93;;;4.53;;
36391;SDS011;22639;42.690;23.356;2022-07-29T14:30:57;5.72;;;5.22;;
36391;SDS011;22639;42.690;23.356;2022-07-29T14:33:23;5.20;;;4.70;;
36391;SDS011;22639;42.690;23.356;2022-07-29T14:35:48;5.13;;;4.72;;
36391;SDS011;22639;42.690;23.356;2022-07-29T14:38:14;4.82;;;4.53;;
36391;SDS011;22639;42.690;23.356;2022-07-29T14:40:39;5.82;;;5.20;;
36391;SDS011;22639;42.690;23.356;2022-07-29T14:43:05;5.57;;;4.63;;
36391;SDS011;22639;42.690;23.356;2022-07-29T14:45:30;5.22;;;4.82;;
36391;SDS011;22639;42.690;23.356;2022-07-29T14:47:56;5.15;;;4.65;;
36391;SDS011;22639;42.690;23.356;2022-07-29T14:50:21;6.15;;;5.55;;
36391;SDS011;22639;42.690;23.356;2022-07-29T14:52:47;4.97;;;4.57;;
36391;SDS011;22639;42.690;23.356;2022-07-29T14:55:12;5.03;;;4.63;;
36391;SDS011;22639;42.690;23.356;2022-07-29T14:57:38;5.40;;;5.00;;
36391;SDS011;22639;42.690;23.356;2022-07-29T15:00:04;5.75;;;5.28;;
36391;SDS011;22639;42.690;23.356;2022-07-29T15:02:32;4.82;;;4.43;;
36391;SDS011;22639;42.690;23.356;2022-07-29T15:04:59;5.15;;;4.65;;
36391;SDS011;22639;42.690;23.356;2022-07-29T15:07:24;5.38;;;4.97;;
36391;SDS011;22639;42.690;23.356;2022-07-29T15:09:50;5.50;;;5.03;;
36391;SDS011;22639;42.690;23.356;2022-07-29T15:12:16;5.28;;;4.82;;
36391;SDS011;22639;42.690;23.356;2022-07-29T15:14:41;6.03;;;5.40;;
36391;SDS011;22639;42.690;23.356;2022-07-29T15:17:07;5.38;;;4.88;;
36391;SDS011;22639;42.690;23.356;2022-07-29T15:19:33;5.20;;;4.80;;
36391;SDS011;22639;42.690;23.356;2022-07-29T15:21:59;5.20;;;4.80;;
36391;SDS011;22639;42.690;23.356;2022-07-29T15:24:24;5.97;;;5.47;;
36391;SDS011;22639;42.690;23.356;2022-07-29T15:26:50;5.68;;;5.18;;